sensor_id;sensor_type;location;lat;lon;timestamp;temperature;humidity
21778;DHT22;11050;52.222;20.916;2023-03-11T00:00:42;8.00;99.90
21778;DHT22;11050;52.222;20.916;2023-03-11T00:03:11;8.00;99.90
21778;DHT22;11050;52.222;20.916;2023-03-11T00:05:41;8.00;99.90
21778;DHT22;11050;52.222;20.916;2023-03-11T00:08:10;8.10;99.90
21778;DHT22;11050;52.222;20.916;2023-03-11T00:10:40;8.00;99.90
21778;DHT22;11050;52.222;20.916;2023-03-11T00:13:09;8.00;99.90
21778;DHT22;11050;52.222;20.916;2023-03-11T00:15:37;8.00;99.90
21778;DHT22;11050;52.222;20.916;2023-03-11T00:18:04;8.10;99.90
21778;DHT22;11050;52.222;20.916;2023-03-11T00:20:33;8.10;99.90
21778;DHT22;11050;52.222;20.916;2023-03-11T00:23:02;8.10;99.90
21778;DHT22;11050;52.222;20.916;2023-03-11T00:25:31;8.10;99.90
21778;DHT22;11050;52.222;20.916;2023-03-11T00:27:58;8.10;99.90
21778;DHT22;11050;52.222;20.916;2023-03-11T00:30:25;8.10;99.90
21778;DHT22;11050;52.222;20.916;2023-03-11T00:32:55;8.10;99.90
21778;DHT22;11050;52.222;20.916;2023-03-11T00:35:24;8.10;99.90
21778;DHT22;11050;52.222;20.916;2023-03-11T00:37:54;8.10;99.90
21778;DHT22;11050;52.222;20.916;2023-03-11T00:40:23;8.10;99.90
21778;DHT22;11050;52.222;20.916;2023-03-11T00:42:50;8.10;99.90
21778;DHT22;11050;52.222;20.916;2023-03-11T00:45:17;8.10;99.90
21778;DHT22;11050;52.222;20.916;2023-03-11T00:47:43;8.10;99.90
21778;DHT22;11050;52.222;20.916;2023-03-11T00:50:14;8.00;99.90
21778;DHT22;11050;52.222;20.916;2023-03-11T00:52:48;8.00;99.90
21778;DHT22;11050;52.222;20.916;2023-03-11T00:55:17;8.00;99.90
21778;DHT22;11050;52.222;20.916;2023-03-11T00:57:46;7.90;99.90
21778;DHT22;11050;52.222;20.916;2023-03-11T01:00:16;7.80;99.90
21778;DHT22;11050;52.222;20.916;2023-03-11T01:02:43;7.80;99.90
21778;DHT22;11050;52.222;20.916;2023-03-11T01:05:09;7.70;99.90
21778;DHT22;11050;52.222;20.916;2023-03-11T01:07:36;7.70;99.90
21778;DHT22;11050;52.222;20.916;2023-03-11T01:10:03;7.60;99.90
21778;DHT22;11050;52.222;20.916;2023-03-11T01:12:29;7.50;99.90
21778;DHT22;11050;52.222;20.916;2023-03-11T01:14:55;7.50;99.90
21778;DHT22;11050;52.222;20.916;2023-03-11T01:17:20;7.40;99.90
21778;DHT22;11050;52.222;20.916;2023-03-11T01:19:47;7.40;99.90
21778;DHT22;11050;52.222;20.916;2023-03-11T01:22:13;7.30;99.90
21778;DHT22;11050;52.222;20.916;2023-03-11T01:24:40;7.30;99.90
21778;DHT22;11050;52.222;20.916;2023-03-11T01:27:06;7.20;99.90
21778;DHT22;11050;52.222;20.916;2023-03-11T01:29:32;7.20;99.90
21778;DHT22;11050;52.222;20.916;2023-03-11T01:31:57;7.10;99.90
21778;DHT22;11050;52.222;20.916;2023-03-11T01:34:23;7.10;99.90
21778;DHT22;11050;52.222;20.916;2023-03-11T01:36:49;7.00;99.90
21778;DHT22;11050;52.222;20.916;2023-03-11T01:39:15;7.00;99.90
21778;DHT22;11050;52.222;20.916;2023-03-11T01:41:41;6.90;99.90
21778;DHT22;11050;52.222;20.916;2023-03-11T01:44:09;6.80;99.90
21778;DHT22;11050;52.222;20.916;2023-03-11T01:49:24;6.70;99.90
21778;DHT22;11050;52.222;20.916;2023-03-11T01:51:53;6.70;99.90
21778;DHT22;11050;52.222;20.916;2023-03-11T01:54:27;6.60;99.90
21778;DHT22;11050;52.222;20.916;2023-03-11T01:56:57;6.50;99.90
21778;DHT22;11050;52.222;20.916;2023-03-11T01:59:29;6.50;99.90
21778;DHT22;11050;52.222;20.916;2023-03-11T02:05:01;6.50;99.90
21778;DHT22;11050;52.222;20.916;2023-03-11T02:07:29;6.40;99.90
21778;DHT22;11050;52.222;20.916;2023-03-11T02:09:54;6.30;99.90
21778;DHT22;11050;52.222;20.916;2023-03-11T02:12:20;6.30;99.90
21778;DHT22;11050;52.222;20.916;2023-03-11T02:14:48;6.30;99.90
21778;DHT22;11050;52.222;20.916;2023-03-11T02:17:18;6.30;99.90
21778;DHT22;11050;52.222;20.916;2023-03-11T02:22:19;6.20;99.90
21778;DHT22;11050;52.222;20.916;2023-03-11T02:27:37;6.10;99.90
21778;DHT22;11050;52.222;20.916;2023-03-11T02:30:07;6.10;99.90
21778;DHT22;11050;52.222;20.916;2023-03-11T02:32:35;6.10;99.90
21778;DHT22;11050;52.222;20.916;2023-03-11T02:35:02;6.00;99.90
21778;DHT22;11050;52.222;20.916;2023-03-11T02:37:29;6.00;99.90
21778;DHT22;11050;52.222;20.916;2023-03-11T02:42:54;5.90;99.90
21778;DHT22;11050;52.222;20.916;2023-03-11T02:45:24;5.90;99.90
21778;DHT22;11050;52.222;20.916;2023-03-11T02:47:52;5.90;99.90
21778;DHT22;11050;52.222;20.916;2023-03-11T02:50:21;5.80;99.90
21778;DHT22;11050;52.222;20.916;2023-03-11T02:52:48;5.80;99.90
21778;DHT22;11050;52.222;20.916;2023-03-11T02:55:15;5.80;99.90
21778;DHT22;11050;52.222;20.916;2023-03-11T02:57:43;5.70;99.90
21778;DHT22;11050;52.222;20.916;2023-03-11T03:00:10;5.70;99.90
21778;DHT22;11050;52.222;20.916;2023-03-11T03:02:42;5.70;99.90
21778;DHT22;11050;52.222;20.916;2023-03-11T03:05:10;5.60;99.90
21778;DHT22;11050;52.222;20.916;2023-03-11T03:07:37;5.60;99.90
21778;DHT22;11050;52.222;20.916;2023-03-11T03:10:04;5.60;99.90
21778;DHT22;11050;52.222;20.916;2023-03-11T03:12:30;5.60;99.90
21778;DHT22;11050;52.222;20.916;2023-03-11T03:14:56;5.60;99.90
21778;DHT22;11050;52.222;20.916;2023-03-11T03:17:23;5.60;99.90
21778;DHT22;11050;52.222;20.916;2023-03-11T03:19:49;5.60;99.90
21778;DHT22;11050;52.222;20.916;2023-03-11T03:22:15;5.60;99.90
21778;DHT22;11050;52.222;20.916;2023-03-11T03:24:40;5.60;99.90
21778;DHT22;11050;52.222;20.916;2023-03-11T03:27:06;5.60;99.90
21778;DHT22;11050;52.222;20.916;2023-03-11T03:29:32;5.60;99.90
21778;DHT22;11050;52.222;20.916;2023-03-11T03:31:57;5.60;99.90
21778;DHT22;11050;52.222;20.916;2023-03-11T03:34:23;5.60;99.90
21778;DHT22;11050;52.222;20.916;2023-03-11T03:36:49;5.70;99.90
21778;DHT22;11050;52.222;20.916;2023-03-11T03:39:15;5.70;99.90
21778;DHT22;11050;52.222;20.916;2023-03-11T03:41:43;5.70;99.90
21778;DHT22;11050;52.222;20.916;2023-03-11T03:44:08;5.70;99.90
21778;DHT22;11050;52.222;20.916;2023-03-11T03:46:34;5.80;99.90
21778;DHT22;11050;52.222;20.916;2023-03-11T03:49:00;5.80;99.90
21778;DHT22;11050;52.222;20.916;2023-03-11T03:51:26;5.80;99.90
21778;DHT22;11050;52.222;20.916;2023-03-11T03:53:51;5.90;99.90
21778;DHT22;11050;52.222;20.916;2023-03-11T03:56:17;5.90;99.90
21778;DHT22;11050;52.222;20.916;2023-03-11T03:58:43;6.00;99.90
21778;DHT22;11050;52.222;20.916;2023-03-11T04:01:10;6.00;99.90
21778;DHT22;11050;52.222;20.916;2023-03-11T04:03:36;6.00;99.90
21778;DHT22;11050;52.222;20.916;2023-03-11T04:08:50;6.10;99.90
21778;DHT22;11050;52.222;20.916;2023-03-11T04:11:17;6.20;99.90
21778;DHT22;11050;52.222;20.916;2023-03-11T04:13:43;6.20;99.90
21778;DHT22;11050;52.222;20.916;2023-03-11T04:16:14;6.20;99.90
21778;DHT22;11050;52.222;20.916;2023-03-11T04:18:43;6.30;99.90
21778;DHT22;11050;52.222;20.916;2023-03-11T04:21:08;6.30;99.90
21778;DHT22;11050;52.222;20.916;2023-03-11T04:23:34;6.30;99.90
21778;DHT22;11050;52.222;20.916;2023-03-11T04:26:00;6.30;99.90
21778;DHT22;11050;52.222;20.916;2023-03-11T04:28:27;6.40;99.90
21778;DHT22;11050;52.222;20.916;2023-03-11T04:30:52;6.40;99.90
21778;DHT22;11050;52.222;20.916;2023-03-11T04:33:18;6.40;99.90
21778;DHT22;11050;52.222;20.916;2023-03-11T04:35:44;6.40;99.90
21778;DHT22;11050;52.222;20.916;2023-03-11T04:38:10;6.50;99.90
21778;DHT22;11050;52.222;20.916;2023-03-11T04:40:36;6.50;99.90
21778;DHT22;11050;52.222;20.916;2023-03-11T04:43:03;6.50;99.90
21778;DHT22;11050;52.222;20.916;2023-03-11T04:45:28;6.50;99.90
21778;DHT22;11050;52.222;20.916;2023-03-11T04:47:54;6.50;99.90
21778;DHT22;11050;52.222;20.916;2023-03-11T04:50:20;6.60;99.90
21778;DHT22;11050;52.222;20.916;2023-03-11T04:52:46;6.60;99.90
21778;DHT22;11050;52.222;20.916;2023-03-11T04:55:13;6.60;99.90
21778;DHT22;11050;52.222;20.916;2023-03-11T04:57:40;6.60;99.90
21778;DHT22;11050;52.222;20.916;2023-03-11T05:00:08;6.60;99.90
21778;DHT22;11050;52.222;20.916;2023-03-11T05:02:38;6.60;99.90
21778;DHT22;11050;52.222;20.916;2023-03-11T05:05:05;6.60;99.90
21778;DHT22;11050;52.222;20.916;2023-03-11T05:07:33;6.60;99.90
21778;DHT22;11050;52.222;20.916;2023-03-11T05:10:00;6.60;99.90
21778;DHT22;11050;52.222;20.916;2023-03-11T05:12:27;6.70;99.90
21778;DHT22;11050;52.222;20.916;2023-03-11T05:14:52;6.70;99.90
21778;DHT22;11050;52.222;20.916;2023-03-11T05:17:18;6.70;99.90
21778;DHT22;11050;52.222;20.916;2023-03-11T05:19:45;6.70;99.90
21778;DHT22;11050;52.222;20.916;2023-03-11T05:22:11;6.70;99.90
21778;DHT22;11050;52.222;20.916;2023-03-11T05:24:36;6.70;99.90
21778;DHT22;11050;52.222;20.916;2023-03-11T05:27:03;6.70;99.90
21778;DHT22;11050;52.222;20.916;2023-03-11T05:29:30;6.70;99.90
21778;DHT22;11050;52.222;20.916;2023-03-11T05:31:56;6.70;99.90
21778;DHT22;11050;52.222;20.916;2023-03-11T05:34:22;6.80;99.90
21778;DHT22;11050;52.222;20.916;2023-03-11T05:36:48;6.80;99.90
21778;DHT22;11050;52.222;20.916;2023-03-11T05:39:14;6.80;99.90
21778;DHT22;11050;52.222;20.916;2023-03-11T05:41:40;6.80;99.90
21778;DHT22;11050;52.222;20.916;2023-03-11T05:44:06;6.90;99.90
21778;DHT22;11050;52.222;20.916;2023-03-11T05:46:32;6.90;99.90
21778;DHT22;11050;52.222;20.916;2023-03-11T05:48:58;6.90;99.90
21778;DHT22;11050;52.222;20.916;2023-03-11T05:51:25;6.90;99.90
21778;DHT22;11050;52.222;20.916;2023-03-11T05:53:51;7.00;99.90
21778;DHT22;11050;52.222;20.916;2023-03-11T05:56:18;7.10;99.90
21778;DHT22;11050;52.222;20.916;2023-03-11T05:58:46;7.10;99.90
21778;DHT22;11050;52.222;20.916;2023-03-11T06:01:14;7.20;99.90
21778;DHT22;11050;52.222;20.916;2023-03-11T06:03:42;7.20;99.90
21778;DHT22;11050;52.222;20.916;2023-03-11T06:06:10;7.30;99.90
21778;DHT22;11050;52.222;20.916;2023-03-11T06:08:37;7.30;99.90
21778;DHT22;11050;52.222;20.916;2023-03-11T06:11:09;7.40;99.90
21778;DHT22;11050;52.222;20.916;2023-03-11T06:13:35;7.40;99.90
21778;DHT22;11050;52.222;20.916;2023-03-11T06:16:03;7.50;99.90
21778;DHT22;11050;52.222;20.916;2023-03-11T06:18:29;7.50;99.90
21778;DHT22;11050;52.222;20.916;2023-03-11T06:20:59;7.50;99.90
21778;DHT22;11050;52.222;20.916;2023-03-11T06:23:26;7.60;99.90
21778;DHT22;11050;52.222;20.916;2023-03-11T06:26:01;7.60;99.90
21778;DHT22;11050;52.222;20.916;2023-03-11T06:28:29;7.60;99.90
21778;DHT22;11050;52.222;20.916;2023-03-11T06:30:55;7.60;99.90
21778;DHT22;11050;52.222;20.916;2023-03-11T06:33:23;7.70;99.90
21778;DHT22;11050;52.222;20.916;2023-03-11T06:35:59;7.70;99.90
21778;DHT22;11050;52.222;20.916;2023-03-11T06:38:26;7.70;99.90
21778;DHT22;11050;52.222;20.916;2023-03-11T06:40:53;7.80;99.90
21778;DHT22;11050;52.222;20.916;2023-03-11T06:43:20;7.80;99.90
21778;DHT22;11050;52.222;20.916;2023-03-11T06:45:46;7.80;99.90
21778;DHT22;11050;52.222;20.916;2023-03-11T06:48:12;7.80;99.90
21778;DHT22;11050;52.222;20.916;2023-03-11T06:50:38;7.80;99.90
21778;DHT22;11050;52.222;20.916;2023-03-11T06:53:04;7.90;99.90
21778;DHT22;11050;52.222;20.916;2023-03-11T06:55:32;7.90;99.90
21778;DHT22;11050;52.222;20.916;2023-03-11T06:57:58;7.90;99.90
21778;DHT22;11050;52.222;20.916;2023-03-11T07:00:24;7.90;99.90
21778;DHT22;11050;52.222;20.916;2023-03-11T07:02:50;8.00;99.90
21778;DHT22;11050;52.222;20.916;2023-03-11T07:05:16;8.00;99.90
21778;DHT22;11050;52.222;20.916;2023-03-11T07:07:42;8.10;99.90
21778;DHT22;11050;52.222;20.916;2023-03-11T07:10:09;8.10;99.90
21778;DHT22;11050;52.222;20.916;2023-03-11T07:12:36;8.10;99.90
21778;DHT22;11050;52.222;20.916;2023-03-11T07:15:03;8.10;99.90
21778;DHT22;11050;52.222;20.916;2023-03-11T07:17:29;8.10;99.90
21778;DHT22;11050;52.222;20.916;2023-03-11T07:19:55;8.10;99.90
21778;DHT22;11050;52.222;20.916;2023-03-11T07:22:20;8.10;99.90
21778;DHT22;11050;52.222;20.916;2023-03-11T07:24:47;8.10;99.90
21778;DHT22;11050;52.222;20.916;2023-03-11T07:27:14;8.10;99.90
21778;DHT22;11050;52.222;20.916;2023-03-11T07:29:39;8.20;99.90
21778;DHT22;11050;52.222;20.916;2023-03-11T07:32:06;8.20;99.90
21778;DHT22;11050;52.222;20.916;2023-03-11T07:34:33;8.20;99.90
21778;DHT22;11050;52.222;20.916;2023-03-11T07:36:59;8.10;99.90
21778;DHT22;11050;52.222;20.916;2023-03-11T07:39:25;8.10;99.90
21778;DHT22;11050;52.222;20.916;2023-03-11T07:41:50;8.10;99.90
21778;DHT22;11050;52.222;20.916;2023-03-11T07:44:17;8.10;99.90
21778;DHT22;11050;52.222;20.916;2023-03-11T07:46:43;8.10;99.90
21778;DHT22;11050;52.222;20.916;2023-03-11T07:49:10;8.10;99.90
21778;DHT22;11050;52.222;20.916;2023-03-11T07:51:38;8.10;99.90
21778;DHT22;11050;52.222;20.916;2023-03-11T07:54:07;8.10;99.90
21778;DHT22;11050;52.222;20.916;2023-03-11T07:56:33;8.10;99.90
21778;DHT22;11050;52.222;20.916;2023-03-11T07:59:01;8.10;99.90
21778;DHT22;11050;52.222;20.916;2023-03-11T08:01:29;8.10;99.90
21778;DHT22;11050;52.222;20.916;2023-03-11T08:04:02;8.10;99.90
21778;DHT22;11050;52.222;20.916;2023-03-11T08:06:31;8.00;99.90
21778;DHT22;11050;52.222;20.916;2023-03-11T08:09:00;8.00;99.90
21778;DHT22;11050;52.222;20.916;2023-03-11T08:11:27;8.00;99.90
21778;DHT22;11050;52.222;20.916;2023-03-11T08:13:54;7.90;99.90
21778;DHT22;11050;52.222;20.916;2023-03-11T08:16:22;7.90;99.90
21778;DHT22;11050;52.222;20.916;2023-03-11T08:18:49;7.90;99.90
21778;DHT22;11050;52.222;20.916;2023-03-11T08:21:18;7.90;99.90
21778;DHT22;11050;52.222;20.916;2023-03-11T08:23:46;7.90;99.90
21778;DHT22;11050;52.222;20.916;2023-03-11T08:26:15;7.90;99.90
21778;DHT22;11050;52.222;20.916;2023-03-11T08:28:44;7.90;99.90
21778;DHT22;11050;52.222;20.916;2023-03-11T08:31:18;7.90;99.90
21778;DHT22;11050;52.222;20.916;2023-03-11T08:33:49;7.90;99.90
21778;DHT22;11050;52.222;20.916;2023-03-11T08:36:17;7.80;99.90
21778;DHT22;11050;52.222;20.916;2023-03-11T08:38:44;7.90;99.90
21778;DHT22;11050;52.222;20.916;2023-03-11T08:41:11;7.80;99.90
21778;DHT22;11050;52.222;20.916;2023-03-11T08:43:37;7.80;99.90
21778;DHT22;11050;52.222;20.916;2023-03-11T08:46:04;7.80;99.90
21778;DHT22;11050;52.222;20.916;2023-03-11T08:48:35;7.80;99.90
21778;DHT22;11050;52.222;20.916;2023-03-11T08:51:08;7.80;99.90
21778;DHT22;11050;52.222;20.916;2023-03-11T08:53:36;7.70;99.90
21778;DHT22;11050;52.222;20.916;2023-03-11T08:56:02;7.60;99.90
21778;DHT22;11050;52.222;20.916;2023-03-11T08:58:28;7.60;99.90
21778;DHT22;11050;52.222;20.916;2023-03-11T09:00:54;7.60;99.90
21778;DHT22;11050;52.222;20.916;2023-03-11T09:03:21;7.50;99.90
21778;DHT22;11050;52.222;20.916;2023-03-11T09:05:47;7.50;99.90
21778;DHT22;11050;52.222;20.916;2023-03-11T09:08:13;7.50;99.90
21778;DHT22;11050;52.222;20.916;2023-03-11T09:10:39;7.50;99.90
21778;DHT22;11050;52.222;20.916;2023-03-11T09:13:05;7.40;99.90
21778;DHT22;11050;52.222;20.916;2023-03-11T09:15:31;7.40;99.90
21778;DHT22;11050;52.222;20.916;2023-03-11T09:17:57;7.40;99.90
21778;DHT22;11050;52.222;20.916;2023-03-11T09:20:24;7.40;99.90
21778;DHT22;11050;52.222;20.916;2023-03-11T09:22:49;7.40;99.90
21778;DHT22;11050;52.222;20.916;2023-03-11T09:25:15;7.30;99.90
21778;DHT22;11050;52.222;20.916;2023-03-11T09:27:41;7.30;99.90
21778;DHT22;11050;52.222;20.916;2023-03-11T09:30:08;7.30;99.90
21778;DHT22;11050;52.222;20.916;2023-03-11T09:32:34;7.30;99.90
21778;DHT22;11050;52.222;20.916;2023-03-11T09:35:00;7.20;99.90
21778;DHT22;11050;52.222;20.916;2023-03-11T09:37:26;7.20;99.90
21778;DHT22;11050;52.222;20.916;2023-03-11T09:39:54;7.10;99.90
21778;DHT22;11050;52.222;20.916;2023-03-11T09:43:09;7.00;99.90
21778;DHT22;11050;52.222;20.916;2023-03-11T09:45:27;6.70;99.90
21778;DHT22;11050;52.222;20.916;2023-03-11T09:53:17;5.90;99.90
21778;DHT22;11050;52.222;20.916;2023-03-11T09:55:53;5.70;99.90
21778;DHT22;11050;52.222;20.916;2023-03-11T09:58:36;5.50;99.90
21778;DHT22;11050;52.222;20.916;2023-03-11T10:01:28;5.30;99.90
21778;DHT22;11050;52.222;20.916;2023-03-11T10:04:25;5.10;99.90
21778;DHT22;11050;52.222;20.916;2023-03-11T10:06:56;4.90;99.90
21778;DHT22;11050;52.222;20.916;2023-03-11T10:09:51;4.70;99.90
21778;DHT22;11050;52.222;20.916;2023-03-11T10:24:28;4.20;99.90
21778;DHT22;11050;52.222;20.916;2023-03-11T10:26:53;4.10;99.90
21778;DHT22;11050;52.222;20.916;2023-03-11T10:29:28;4.00;99.90
21778;DHT22;11050;52.222;20.916;2023-03-11T10:32:17;3.90;99.90
21778;DHT22;11050;52.222;20.916;2023-03-11T10:35:22;3.90;99.90
21778;DHT22;11050;52.222;20.916;2023-03-11T10:37:57;3.70;99.90
21778;DHT22;11050;52.222;20.916;2023-03-11T10:40:34;3.60;99.90
21778;DHT22;11050;52.222;20.916;2023-03-11T10:43:12;3.60;99.90
21778;DHT22;11050;52.222;20.916;2023-03-11T10:45:43;3.50;99.90
21778;DHT22;11050;52.222;20.916;2023-03-11T10:48:14;3.40;99.90
21778;DHT22;11050;52.222;20.916;2023-03-11T10:50:49;3.40;99.90
21778;DHT22;11050;52.222;20.916;2023-03-11T10:53:28;3.40;99.90
21778;DHT22;11050;52.222;20.916;2023-03-11T10:55:57;3.40;99.90
21778;DHT22;11050;52.222;20.916;2023-03-11T10:58:28;3.30;99.90
21778;DHT22;11050;52.222;20.916;2023-03-11T11:01:00;3.30;99.90
21778;DHT22;11050;52.222;20.916;2023-03-11T11:03:29;3.20;99.90
21778;DHT22;11050;52.222;20.916;2023-03-11T11:06:01;3.20;99.90
21778;DHT22;11050;52.222;20.916;2023-03-11T11:08:29;3.10;99.90
21778;DHT22;11050;52.222;20.916;2023-03-11T11:11:19;3.00;99.90
21778;DHT22;11050;52.222;20.916;2023-03-11T11:13:57;3.00;99.90
21778;DHT22;11050;52.222;20.916;2023-03-11T11:16:25;3.00;99.90
21778;DHT22;11050;52.222;20.916;2023-03-11T11:19:12;2.90;99.90
21778;DHT22;11050;52.222;20.916;2023-03-11T11:21:46;2.80;99.90
21778;DHT22;11050;52.222;20.916;2023-03-11T11:24:26;2.80;99.90
21778;DHT22;11050;52.222;20.916;2023-03-11T11:27:14;2.80;99.90
21778;DHT22;11050;52.222;20.916;2023-03-11T11:30:15;2.80;99.90
21778;DHT22;11050;52.222;20.916;2023-03-11T11:32:42;2.80;99.90
21778;DHT22;11050;52.222;20.916;2023-03-11T11:35:13;2.80;99.90
21778;DHT22;11050;52.222;20.916;2023-03-11T11:37:43;2.80;99.90
21778;DHT22;11050;52.222;20.916;2023-03-11T11:43:01;2.90;99.90
21778;DHT22;11050;52.222;20.916;2023-03-11T11:48:13;2.80;99.90
21778;DHT22;11050;52.222;20.916;2023-03-11T11:50:54;2.80;99.90
21778;DHT22;11050;52.222;20.916;2023-03-11T11:53:54;2.70;99.90
21778;DHT22;11050;52.222;20.916;2023-03-11T11:56:24;2.60;99.90
21778;DHT22;11050;52.222;20.916;2023-03-11T11:58:51;2.50;99.90
21778;DHT22;11050;52.222;20.916;2023-03-11T12:01:30;2.50;99.90
21778;DHT22;11050;52.222;20.916;2023-03-11T12:12:22;2.30;99.90
21778;DHT22;11050;52.222;20.916;2023-03-11T12:15:00;2.30;99.90
21778;DHT22;11050;52.222;20.916;2023-03-11T12:17:28;2.30;99.90
21778;DHT22;11050;52.222;20.916;2023-03-11T12:19:59;2.20;99.90
21778;DHT22;11050;52.222;20.916;2023-03-11T12:22:54;2.20;99.90
21778;DHT22;11050;52.222;20.916;2023-03-11T12:26:16;2.20;99.90
21778;DHT22;11050;52.222;20.916;2023-03-11T12:29:12;2.20;99.90
21778;DHT22;11050;52.222;20.916;2023-03-11T12:31:51;2.20;99.90
21778;DHT22;11050;52.222;20.916;2023-03-11T12:34:21;2.10;99.90
21778;DHT22;11050;52.222;20.916;2023-03-11T12:36:50;2.20;99.90
21778;DHT22;11050;52.222;20.916;2023-03-11T12:39:30;2.10;99.90
21778;DHT22;11050;52.222;20.916;2023-03-11T12:44:38;2.20;99.90
21778;DHT22;11050;52.222;20.916;2023-03-11T12:49:41;2.10;99.90
21778;DHT22;11050;52.222;20.916;2023-03-11T12:54:42;2.10;99.90
21778;DHT22;11050;52.222;20.916;2023-03-11T13:08:27;1.80;99.90
21778;DHT22;11050;52.222;20.916;2023-03-11T13:10:56;1.70;99.90
21778;DHT22;11050;52.222;20.916;2023-03-11T13:13:39;1.70;99.90
21778;DHT22;11050;52.222;20.916;2023-03-11T13:18:37;1.60;99.90
21778;DHT22;11050;52.222;20.916;2023-03-11T13:21:04;1.60;99.90
21778;DHT22;11050;52.222;20.916;2023-03-11T13:30:30;1.50;99.90
21778;DHT22;11050;52.222;20.916;2023-03-11T13:33:52;1.40;99.90
21778;DHT22;11050;52.222;20.916;2023-03-11T13:42:02;1.40;99.90
21778;DHT22;11050;52.222;20.916;2023-03-11T13:44:36;1.40;99.90
21778;DHT22;11050;52.222;20.916;2023-03-11T13:47:15;1.40;99.90
21778;DHT22;11050;52.222;20.916;2023-03-11T13:49:45;1.40;99.90
21778;DHT22;11050;52.222;20.916;2023-03-11T13:52:24;1.40;99.90
21778;DHT22;11050;52.222;20.916;2023-03-11T13:57:30;1.30;99.90
21778;DHT22;11050;52.222;20.916;2023-03-11T14:00:13;1.20;99.90
21778;DHT22;11050;52.222;20.916;2023-03-11T14:02:50;1.20;99.90
21778;DHT22;11050;52.222;20.916;2023-03-11T14:05:33;1.20;99.90
21778;DHT22;11050;52.222;20.916;2023-03-11T14:08:24;1.20;99.90
21778;DHT22;11050;52.222;20.916;2023-03-11T14:13:43;1.10;99.90
21778;DHT22;11050;52.222;20.916;2023-03-11T14:19:15;1.10;99.90
21778;DHT22;11050;52.222;20.916;2023-03-11T14:21:44;1.10;99.90
21778;DHT22;11050;52.222;20.916;2023-03-11T14:24:25;1.00;99.90
21778;DHT22;11050;52.222;20.916;2023-03-11T14:26:55;1.10;99.90
21778;DHT22;11050;52.222;20.916;2023-03-11T14:29:34;1.00;99.90
21778;DHT22;11050;52.222;20.916;2023-03-11T14:32:28;1.00;99.90
21778;DHT22;11050;52.222;20.916;2023-03-11T14:34:56;1.00;99.90
21778;DHT22;11050;52.222;20.916;2023-03-11T14:37:38;1.00;99.90
21778;DHT22;11050;52.222;20.916;2023-03-11T14:40:23;1.00;99.90
21778;DHT22;11050;52.222;20.916;2023-03-11T14:42:50;1.00;99.90
21778;DHT22;11050;52.222;20.916;2023-03-11T14:45:21;1.00;99.90
21778;DHT22;11050;52.222;20.916;2023-03-11T14:48:03;1.10;99.90
21778;DHT22;11050;52.222;20.916;2023-03-11T14:50:48;1.00;99.90
21778;DHT22;11050;52.222;20.916;2023-03-11T14:53:29;1.10;99.90
21778;DHT22;11050;52.222;20.916;2023-03-11T14:56:07;1.10;99.90
21778;DHT22;11050;52.222;20.916;2023-03-11T14:58:45;1.20;99.90
21778;DHT22;11050;52.222;20.916;2023-03-11T15:01:29;1.20;99.90
21778;DHT22;11050;52.222;20.916;2023-03-11T15:04:19;1.30;99.90
21778;DHT22;11050;52.222;20.916;2023-03-11T15:06:51;1.30;99.90
21778;DHT22;11050;52.222;20.916;2023-03-11T15:09:19;1.30;99.90
21778;DHT22;11050;52.222;20.916;2023-03-11T15:11:56;1.30;99.90
21778;DHT22;11050;52.222;20.916;2023-03-11T15:14:26;1.30;99.90
21778;DHT22;11050;52.222;20.916;2023-03-11T15:17:15;1.30;99.90
21778;DHT22;11050;52.222;20.916;2023-03-11T15:19:43;1.30;99.90
21778;DHT22;11050;52.222;20.916;2023-03-11T15:22:28;1.30;99.90
21778;DHT22;11050;52.222;20.916;2023-03-11T15:25:01;1.30;99.90
21778;DHT22;11050;52.222;20.916;2023-03-11T15:27:34;1.30;99.90
21778;DHT22;11050;52.222;20.916;2023-03-11T15:30:15;1.30;99.90
21778;DHT22;11050;52.222;20.916;2023-03-11T15:32:43;1.30;99.90
21778;DHT22;11050;52.222;20.916;2023-03-11T15:35:13;1.30;99.90
21778;DHT22;11050;52.222;20.916;2023-03-11T15:37:45;1.30;99.90
21778;DHT22;11050;52.222;20.916;2023-03-11T15:42:47;1.30;99.90
21778;DHT22;11050;52.222;20.916;2023-03-11T15:45:18;1.30;99.90
21778;DHT22;11050;52.222;20.916;2023-03-11T15:47:47;1.30;99.90
21778;DHT22;11050;52.222;20.916;2023-03-11T15:50:23;1.30;99.90
21778;DHT22;11050;52.222;20.916;2023-03-11T15:52:57;1.30;99.90
21778;DHT22;11050;52.222;20.916;2023-03-11T15:55:25;1.30;99.90
21778;DHT22;11050;52.222;20.916;2023-03-11T15:58:19;1.20;99.90
21778;DHT22;11050;52.222;20.916;2023-03-11T16:00:51;1.20;99.90
21778;DHT22;11050;52.222;20.916;2023-03-11T16:03:20;1.20;99.90
21778;DHT22;11050;52.222;20.916;2023-03-11T16:05:46;1.20;99.90
21778;DHT22;11050;52.222;20.916;2023-03-11T16:08:13;1.20;99.90
21778;DHT22;11050;52.222;20.916;2023-03-11T16:10:40;1.20;99.90
21778;DHT22;11050;52.222;20.916;2023-03-11T16:13:13;1.20;99.90
21778;DHT22;11050;52.222;20.916;2023-03-11T16:15:40;1.20;99.90
21778;DHT22;11050;52.222;20.916;2023-03-11T16:18:08;1.20;99.90
21778;DHT22;11050;52.222;20.916;2023-03-11T16:20:46;1.20;99.90
21778;DHT22;11050;52.222;20.916;2023-03-11T16:23:25;1.20;99.90
21778;DHT22;11050;52.222;20.916;2023-03-11T16:25:59;1.20;99.90
21778;DHT22;11050;52.222;20.916;2023-03-11T16:28:27;1.20;99.90
21778;DHT22;11050;52.222;20.916;2023-03-11T16:30:53;1.20;99.90
21778;DHT22;11050;52.222;20.916;2023-03-11T16:33:19;1.10;99.90
21778;DHT22;11050;52.222;20.916;2023-03-11T16:35:45;1.10;99.90
21778;DHT22;11050;52.222;20.916;2023-03-11T16:38:11;1.10;99.90
21778;DHT22;11050;52.222;20.916;2023-03-11T16:40:37;1.10;99.90
21778;DHT22;11050;52.222;20.916;2023-03-11T16:43:08;1.10;99.90
21778;DHT22;11050;52.222;20.916;2023-03-11T16:45:35;1.10;99.90
21778;DHT22;11050;52.222;20.916;2023-03-11T16:48:02;1.00;99.90
21778;DHT22;11050;52.222;20.916;2023-03-11T16:50:30;1.00;99.90
21778;DHT22;11050;52.222;20.916;2023-03-11T16:52:57;0.90;99.90
21778;DHT22;11050;52.222;20.916;2023-03-11T16:55:24;0.90;99.90
21778;DHT22;11050;52.222;20.916;2023-03-11T16:57:51;0.90;99.90
21778;DHT22;11050;52.222;20.916;2023-03-11T17:00:19;0.80;99.90
21778;DHT22;11050;52.222;20.916;2023-03-11T17:02:45;0.80;99.90
21778;DHT22;11050;52.222;20.916;2023-03-11T17:05:11;0.70;99.90
21778;DHT22;11050;52.222;20.916;2023-03-11T17:07:37;0.70;99.90
21778;DHT22;11050;52.222;20.916;2023-03-11T17:10:04;0.70;99.90
21778;DHT22;11050;52.222;20.916;2023-03-11T17:12:31;0.70;99.90
21778;DHT22;11050;52.222;20.916;2023-03-11T17:14:57;0.70;99.90
21778;DHT22;11050;52.222;20.916;2023-03-11T17:17:24;0.60;99.90
21778;DHT22;11050;52.222;20.916;2023-03-11T17:19:50;0.70;99.90
21778;DHT22;11050;52.222;20.916;2023-03-11T17:22:16;0.60;99.90